Crane Gaia — 3FXX2 — position and weather

sailwx.info

Track history (hours):
 
Tides and Currents Weather Stations Pressure Air Temp Water Temp Dewpoint Dewpoint Depression Visibility Wind Speed Wind Dir Waves Ship Positions

Crane Gaia

Last reported at 2014-Aug-31 10:33 UTC. Time now 2014-Sep-16 23:35 UTC.
Position N 33°57' E 132°42'.
Warning: this ship's position is 16 days out of date.

Length 115 m; draft 7 m.

Type: Tanker. MMSI: 352461000.

Date/timePositionNaut miles runAvg speedWind from/ knotsBaromVisibWave heightAir tempDewpointWater temp
2014-Aug-31 10:33N 33°57' E 132°42'10812.9
2014-Aug-31 02:10N 34°33' E 134°45'1016.0
2014-Aug-31 01:34N 34°36' E 134°56'1414.1
2014-Aug-31 00:33N 34°36' E 135°13'5 4.5
2014-Aug-30 23:29N 34°40' E 135°18'0 0.0
2014-Aug-30 22:29N 34°40' E 135°18'0 0.0
2014-Aug-30 21:29N 34°40' E 135°18'0 0.0
2014-Aug-30 20:23N 34°40' E 135°18'0 0.0
2014-Aug-30 19:29N 34°40' E 135°18'0 0.0
2014-Aug-30 18:29N 34°40' E 135°18'0 0.0
2014-Aug-30 17:29N 34°40' E 135°18'0 0.0
2014-Aug-30 16:29N 34°40' E 135°18'0 0.0
2014-Aug-30 15:17N 34°40' E 135°18'0 0.0
2014-Aug-30 14:29N 34°40' E 135°18'0 0.0
2014-Aug-30 13:23N 34°40' E 135°18'0 0.0
2014-Aug-30 12:29N 34°40' E 135°18'0 0.0
2014-Aug-30 11:29N 34°40' E 135°18'0 0.0
2014-Aug-30 10:29N 34°40' E 135°18'0 0.1
2014-Aug-30 09:29N 34°40' E 135°18'0 0.0
2014-Aug-30 08:23N 34°40' E 135°18'0 0.1
2014-Aug-30 07:29N 34°40' E 135°18'0 0.1
2014-Aug-30 06:29N 34°40' E 135°18'0 0.0
2014-Aug-30 05:29N 34°40' E 135°18'0 0.0
2014-Aug-30 04:23N 34°40' E 135°18'0 0.1
2014-Aug-30 03:29N 34°40' E 135°18'0 0.1
2014-Aug-30 02:23N 34°40' E 135°18'0 0.0
2014-Aug-30 01:29N 34°40' E 135°18'0 0.0
2014-Aug-30 00:32N 34°40' E 135°18'0 0.0
2014-Aug-29 23:32N 34°40' E 135°18'0 0.0
2014-Aug-29 22:20N 34°40' E 135°18'0 0.0
2014-Aug-29 21:26N 34°40' E 135°18'0 0.0
2014-Aug-29 20:26N 34°40' E 135°18'0 0.0
2014-Aug-29 19:32N 34°40' E 135°18'0 0.1
2014-Aug-29 18:32N 34°40' E 135°18'0 0.0
2014-Aug-29 17:32N 34°40' E 135°18'0 0.0
2014-Aug-29 16:32N 34°40' E 135°18'0 0.0
2014-Aug-29 15:32N 34°40' E 135°18'0 0.1
2014-Aug-29 14:32N 34°40' E 135°18'0 0.1
2014-Aug-29 13:32N 34°40' E 135°18'2 2.4
2014-Aug-29 12:33N 34°37' E 135°17'1413.6
2014-Aug-29 11:33N 34°26' E 135°08'1313.5
2014-Aug-29 10:33N 34°14' E 134°60'1111.2
2014-Aug-29 09:33N 34°09' E 135°12'0 0.1
2014-Aug-29 03:33N 34°09' E 135°11'2 2.2
2014-Aug-29 02:32N 34°09' E 135°09'0 0.3
2014-Aug-29 01:34N 34°09' E 135°08'1010.4
2014-Aug-29 00:33N 34°16' E 134°59'1313.3
2014-Aug-28 23:33N 34°29' E 135°02'8 8.4
2014-Aug-28 22:33N 34°37' E 134°58'8 0.4
2014-Aug-28 02:25N 34°34' E 134°49'1315.3
2014-Aug-28 01:33N 34°35' E 135°05'1414.3
2014-Aug-28 00:33N 34°22' E 135°01'1414.3
2014-Aug-27 23:33N 34°07' E 134°59'22110.8
2014-Aug-27 03:09N 34°54' E 139°21'914.6
2014-Aug-27 02:33N 34°59' E 139°30'1515.1
2014-Aug-27 01:33N 35°08' E 139°44'1313.0
2014-Aug-27 00:34N 35°21' E 139°42'9 9.1
2014-Aug-26 23:33N 35°29' E 139°48'0 0.0
2014-Aug-26 22:31N 35°29' E 139°48'3 2.7
2014-Aug-26 21:29N 35°31' E 139°46'0 0.0
2014-Aug-26 20:32N 35°31' E 139°46'0 0.0
2014-Aug-26 19:32N 35°31' E 139°46'0 0.0
2014-Aug-26 18:29N 35°31' E 139°46'0 0.0
2014-Aug-26 17:32N 35°31' E 139°46'0 0.0
2014-Aug-26 16:32N 35°31' E 139°46'0 0.0
2014-Aug-26 15:32N 35°31' E 139°46'0 0.0
2014-Aug-26 14:32N 35°31' E 139°46'0 0.0
2014-Aug-26 13:32N 35°31' E 139°46'0 0.0
2014-Aug-26 12:32N 35°31' E 139°46'0 0.0
2014-Aug-26 11:23N 35°31' E 139°46'0 0.0
2014-Aug-26 10:32N 35°31' E 139°46'0 0.0
2014-Aug-26 09:32N 35°31' E 139°46'0 0.0
2014-Aug-26 08:29N 35°31' E 139°46'0 0.0
2014-Aug-26 07:29N 35°31' E 139°46'0 0.0
2014-Aug-26 06:32N 35°31' E 139°46'0 0.0
2014-Aug-26 05:29N 35°31' E 139°46'0 0.0
2014-Aug-26 04:32N 35°31' E 139°46'0 0.0
2014-Aug-26 03:32N 35°31' E 139°46'2 2.3
2014-Aug-26 02:34N 35°29' E 139°48'1111.4
2014-Aug-26 01:33N 35°18' E 139°44'1212.0
2014-Aug-26 00:34N 35°06' E 139°45'1514.6
2014-Aug-25 23:34N 34°57' E 139°31'72914.5
2014-Aug-23 21:14N 30°56' E 125°52'1114.3
2014-Aug-23 20:28N 30°56' E 125°39'1314.3
2014-Aug-23 19:33N 30°56' E 125°24'  
Track history (hours):
 
Tides and Currents Weather Stations Pressure Air Temp Water Temp Dewpoint Dewpoint Depression Visibility Wind Speed Wind Dir Waves Ship Positions

Crane Gaia

Last reported at 2014-Aug-31 10:33 UTC. Time now 2014-Sep-16 23:35 UTC.
Position N 33°57' E 132°42'.
Warning: this ship's position is 16 days out of date.

Length 115 m; draft 7 m.

Type: Tanker. MMSI: 352461000.

Date/timePositionNaut miles runAvg speedWind from/ knotsBaromVisibWave heightAir tempDewpointWater temp
2014-Aug-31 10:33N 33°57' E 132°42'10812.9
2014-Aug-31 02:10N 34°33' E 134°45'1016.0
2014-Aug-31 01:34N 34°36' E 134°56'1414.1
2014-Aug-31 00:33N 34°36' E 135°13'5 4.5
2014-Aug-30 23:29N 34°40' E 135°18'0 0.0
2014-Aug-30 22:29N 34°40' E 135°18'0 0.0
2014-Aug-30 21:29N 34°40' E 135°18'0 0.0
2014-Aug-30 20:23N 34°40' E 135°18'0 0.0
2014-Aug-30 19:29N 34°40' E 135°18'0 0.0
2014-Aug-30 18:29N 34°40' E 135°18'0 0.0
2014-Aug-30 17:29N 34°40' E 135°18'0 0.0
2014-Aug-30 16:29N 34°40' E 135°18'0 0.0
2014-Aug-30 15:17N 34°40' E 135°18'0 0.0
2014-Aug-30 14:29N 34°40' E 135°18'0 0.0
2014-Aug-30 13:23N 34°40' E 135°18'0 0.0
2014-Aug-30 12:29N 34°40' E 135°18'0 0.0
2014-Aug-30 11:29N 34°40' E 135°18'0 0.0
2014-Aug-30 10:29N 34°40' E 135°18'0 0.1
2014-Aug-30 09:29N 34°40' E 135°18'0 0.0
2014-Aug-30 08:23N 34°40' E 135°18'0 0.1
2014-Aug-30 07:29N 34°40' E 135°18'0 0.1
2014-Aug-30 06:29N 34°40' E 135°18'0 0.0
2014-Aug-30 05:29N 34°40' E 135°18'0 0.0
2014-Aug-30 04:23N 34°40' E 135°18'0 0.1
2014-Aug-30 03:29N 34°40' E 135°18'0 0.1
2014-Aug-30 02:23N 34°40' E 135°18'0 0.0
2014-Aug-30 01:29N 34°40' E 135°18'0 0.0
2014-Aug-30 00:32N 34°40' E 135°18'0 0.0
2014-Aug-29 23:32N 34°40' E 135°18'0 0.0
2014-Aug-29 22:20N 34°40' E 135°18'0 0.0
2014-Aug-29 21:26N 34°40' E 135°18'0 0.0
2014-Aug-29 20:26N 34°40' E 135°18'0 0.0
2014-Aug-29 19:32N 34°40' E 135°18'0 0.1
2014-Aug-29 18:32N 34°40' E 135°18'0 0.0
2014-Aug-29 17:32N 34°40' E 135°18'0 0.0
2014-Aug-29 16:32N 34°40' E 135°18'0 0.0
2014-Aug-29 15:32N 34°40' E 135°18'0 0.1
2014-Aug-29 14:32N 34°40' E 135°18'0 0.1
2014-Aug-29 13:32N 34°40' E 135°18'2 2.4
2014-Aug-29 12:33N 34°37' E 135°17'1413.6
2014-Aug-29 11:33N 34°26' E 135°08'1313.5
2014-Aug-29 10:33N 34°14' E 134°60'1111.2
2014-Aug-29 09:33N 34°09' E 135°12'0 0.1
2014-Aug-29 03:33N 34°09' E 135°11'2 2.2
2014-Aug-29 02:32N 34°09' E 135°09'0 0.3
2014-Aug-29 01:34N 34°09' E 135°08'1010.4
2014-Aug-29 00:33N 34°16' E 134°59'1313.3
2014-Aug-28 23:33N 34°29' E 135°02'8 8.4
2014-Aug-28 22:33N 34°37' E 134°58'8 0.4
2014-Aug-28 02:25N 34°34' E 134°49'1315.3
2014-Aug-28 01:33N 34°35' E 135°05'1414.3
2014-Aug-28 00:33N 34°22' E 135°01'1414.3
2014-Aug-27 23:33N 34°07' E 134°59'22110.8
2014-Aug-27 03:09N 34°54' E 139°21'914.6
2014-Aug-27 02:33N 34°59' E 139°30'1515.1
2014-Aug-27 01:33N 35°08' E 139°44'1313.0
2014-Aug-27 00:34N 35°21' E 139°42'9 9.1
2014-Aug-26 23:33N 35°29' E 139°48'0 0.0
2014-Aug-26 22:31N 35°29' E 139°48'3 2.7
2014-Aug-26 21:29N 35°31' E 139°46'0 0.0
2014-Aug-26 20:32N 35°31' E 139°46'0 0.0
2014-Aug-26 19:32N 35°31' E 139°46'0 0.0
2014-Aug-26 18:29N 35°31' E 139°46'0 0.0
2014-Aug-26 17:32N 35°31' E 139°46'0 0.0
2014-Aug-26 16:32N 35°31' E 139°46'0 0.0
2014-Aug-26 15:32N 35°31' E 139°46'0 0.0
2014-Aug-26 14:32N 35°31' E 139°46'0 0.0
2014-Aug-26 13:32N 35°31' E 139°46'0 0.0
2014-Aug-26 12:32N 35°31' E 139°46'0 0.0
2014-Aug-26 11:23N 35°31' E 139°46'0 0.0
2014-Aug-26 10:32N 35°31' E 139°46'0 0.0
2014-Aug-26 09:32N 35°31' E 139°46'0 0.0
2014-Aug-26 08:29N 35°31' E 139°46'0 0.0
2014-Aug-26 07:29N 35°31' E 139°46'0 0.0
2014-Aug-26 06:32N 35°31' E 139°46'0 0.0
2014-Aug-26 05:29N 35°31' E 139°46'0 0.0
2014-Aug-26 04:32N 35°31' E 139°46'0 0.0
2014-Aug-26 03:32N 35°31' E 139°46'2 2.3
2014-Aug-26 02:34N 35°29' E 139°48'1111.4
2014-Aug-26 01:33N 35°18' E 139°44'1212.0
2014-Aug-26 00:34N 35°06' E 139°45'1514.6
2014-Aug-25 23:34N 34°57' E 139°31'72914.5
2014-Aug-23 21:14N 30°56' E 125°52'1114.3
2014-Aug-23 20:28N 30°56' E 125°39'1314.3
2014-Aug-23 19:33N 30°56' E 125°24'  

Dump ship's entire track history